createdAt,value
2018-08-07T00:02:01.381Z,22.90
2018-08-07T00:04:28.731Z,22.70
2018-08-07T00:06:56.225Z,22.70
2018-08-07T00:09:23.723Z,22.70
2018-08-07T00:11:51.211Z,22.70
2018-08-07T00:14:18.661Z,22.70
2018-08-07T00:16:46.185Z,22.60
2018-08-07T00:19:13.539Z,22.60
2018-08-07T00:24:08.302Z,22.60
2018-08-07T00:26:35.696Z,22.60
2018-08-07T00:29:03.275Z,22.50
2018-08-07T00:31:30.704Z,22.50
2018-08-07T00:33:58.118Z,22.50
2018-08-07T00:36:25.637Z,22.40
2018-08-07T00:38:53.151Z,22.40
2018-08-07T00:41:20.708Z,22.30
2018-08-07T00:43:48.011Z,22.30
2018-08-07T00:46:15.480Z,22.30
2018-08-07T00:48:43.012Z,22.30
2018-08-07T00:51:10.426Z,22.30
2018-08-07T00:53:37.779Z,22.40
2018-08-07T00:56:05.346Z,22.40
2018-08-07T00:58:32.714Z,22.30
2018-08-07T01:01:00.150Z,22.40
2018-08-07T01:03:27.618Z,22.40
2018-08-07T01:05:55.132Z,22.40
2018-08-07T01:08:22.530Z,22.40
2018-08-07T01:10:49.934Z,22.40
2018-08-07T01:13:17.274Z,22.40
2018-08-07T01:15:44.810Z,22.40
2018-08-07T01:18:12.151Z,22.40
2018-08-07T01:20:39.551Z,22.30
2018-08-07T01:23:06.910Z,22.30
2018-08-07T01:25:34.252Z,22.30
2018-08-07T01:28:01.741Z,22.20
2018-08-07T01:30:29.709Z,22.20
2018-08-07T01:32:57.506Z,22.10
2018-08-07T01:35:25.996Z,22.10
2018-08-07T01:37:53.419Z,22.10
2018-08-07T01:40:20.952Z,22.10
2018-08-07T01:42:48.466Z,22.00
2018-08-07T01:45:15.944Z,22.00
2018-08-07T01:47:43.417Z,22.00
2018-08-07T01:50:12.089Z,22.00
2018-08-07T01:52:39.557Z,22.00
2018-08-07T01:55:08.586Z,22.10
2018-08-07T01:57:36.130Z,22.10
2018-08-07T02:00:05.942Z,22.10
2018-08-07T02:02:33.409Z,22.10
2018-08-07T02:05:00.869Z,22.10
2018-08-07T02:07:28.294Z,22.10
2018-08-07T02:09:55.697Z,22.10
2018-08-07T02:12:23.172Z,22.10
2018-08-07T02:14:50.593Z,22.00
2018-08-07T02:17:18.013Z,22.00
2018-08-07T02:19:45.448Z,22.00
2018-08-07T02:22:12.973Z,22.10
2018-08-07T02:24:40.494Z,22.10
2018-08-07T02:27:07.893Z,22.10
2018-08-07T02:29:35.293Z,22.00
2018-08-07T02:32:02.619Z,22.10
2018-08-07T02:34:30.023Z,22.10
2018-08-07T02:36:57.485Z,22.00
2018-08-07T02:39:24.927Z,22.00
2018-08-07T02:41:52.335Z,22.00
2018-08-07T02:44:19.700Z,22.00
2018-08-07T02:46:47.097Z,22.00
2018-08-07T02:49:14.497Z,21.90
2018-08-07T02:51:42.013Z,21.90
2018-08-07T02:54:09.386Z,21.90
2018-08-07T02:56:36.766Z,21.80
2018-08-07T02:59:04.154Z,21.80
2018-08-07T03:01:31.509Z,21.80
2018-08-07T03:03:58.955Z,21.80
2018-08-07T03:06:26.457Z,21.80
2018-08-07T03:08:53.868Z,21.80
2018-08-07T03:11:28.889Z,21.80
2018-08-07T03:13:56.438Z,21.70
2018-08-07T03:16:23.829Z,21.70
2018-08-07T03:18:51.175Z,21.60
2018-08-07T03:21:18.543Z,21.60
2018-08-07T03:23:45.983Z,21.60
2018-08-07T03:26:13.486Z,21.50
2018-08-07T03:28:40.885Z,21.50
2018-08-07T03:31:08.393Z,21.40
2018-08-07T03:33:35.858Z,21.30
2018-08-07T03:36:03.322Z,21.30
2018-08-07T03:38:30.728Z,21.20
2018-08-07T03:40:58.115Z,21.20
2018-08-07T03:43:25.491Z,21.20
2018-08-07T03:45:52.914Z,21.20
2018-08-07T03:48:20.294Z,21.20
2018-08-07T03:50:47.735Z,21.30
2018-08-07T03:53:15.065Z,21.20
2018-08-07T03:55:42.784Z,21.20
2018-08-07T03:58:10.418Z,21.20
2018-08-07T04:00:43.649Z,21.20
2018-08-07T04:03:11.062Z,21.10
2018-08-07T04:05:38.460Z,21.00
2018-08-07T04:08:05.869Z,21.00
2018-08-07T04:10:33.173Z,21.00
2018-08-07T04:13:00.502Z,21.00
2018-08-07T04:15:28.021Z,21.00
2018-08-07T04:17:55.429Z,21.10
2018-08-07T04:20:25.405Z,21.20
2018-08-07T04:23:03.933Z,21.20
2018-08-07T04:25:46.465Z,21.30
2018-08-07T04:28:14.072Z,21.40
2018-08-07T04:30:41.805Z,21.40
2018-08-07T04:33:09.683Z,21.40
2018-08-07T04:35:38.443Z,21.40
2018-08-07T04:38:06.207Z,21.50
2018-08-07T04:40:34.512Z,21.50
2018-08-07T04:43:02.195Z,21.60
2018-08-07T04:45:29.785Z,21.70
2018-08-07T04:47:57.248Z,21.70
2018-08-07T04:50:32.045Z,21.60
2018-08-07T04:52:59.847Z,21.70
2018-08-07T04:55:27.568Z,21.80
2018-08-07T04:57:55.111Z,21.70
2018-08-07T05:00:22.809Z,21.80
2018-08-07T05:02:50.312Z,21.80
2018-08-07T05:05:17.836Z,21.80
2018-08-07T05:07:45.339Z,21.80
2018-08-07T05:10:14.815Z,21.90
2018-08-07T05:12:43.091Z,22.00
2018-08-07T05:15:11.089Z,22.10
2018-08-07T05:17:39.374Z,22.20
2018-08-07T05:20:07.091Z,22.30
2018-08-07T05:22:35.094Z,22.40
2018-08-07T05:25:02.478Z,22.40
2018-08-07T05:27:29.942Z,22.50
2018-08-07T05:29:57.419Z,22.60
2018-08-07T05:32:24.871Z,22.60
2018-08-07T05:34:52.223Z,22.70
2018-08-07T05:37:19.743Z,22.80
2018-08-07T05:39:47.151Z,22.80
2018-08-07T05:42:14.641Z,23.00
2018-08-07T05:44:42.157Z,23.10
2018-08-07T05:47:09.566Z,23.10
2018-08-07T05:49:37.065Z,23.30
2018-08-07T05:52:04.559Z,23.40
2018-08-07T05:54:32.069Z,23.50
2018-08-07T05:56:59.500Z,23.50
2018-08-07T05:59:27.056Z,23.60
2018-08-07T06:01:54.463Z,23.60
2018-08-07T06:04:21.919Z,23.80
2018-08-07T06:06:49.361Z,23.80
2018-08-07T06:09:16.721Z,23.80
2018-08-07T06:11:44.174Z,23.90
2018-08-07T06:14:11.970Z,24.00
2018-08-07T06:16:40.321Z,24.20
2018-08-07T06:19:07.783Z,24.40
2018-08-07T06:21:35.245Z,24.50
2018-08-07T06:24:02.713Z,24.60
2018-08-07T06:26:30.102Z,24.80
2018-08-07T06:28:57.525Z,24.80
2018-08-07T06:31:25.079Z,24.80
2018-08-07T06:33:52.532Z,24.90
2018-08-07T06:36:19.922Z,25.00
2018-08-07T06:41:19.854Z,25.30
2018-08-07T06:43:47.266Z,25.50
2018-08-07T06:46:14.837Z,25.70
2018-08-07T06:48:42.276Z,25.70
2018-08-07T06:51:09.626Z,25.70
2018-08-07T06:53:37.009Z,25.90
2018-08-07T06:56:04.936Z,26.00
2018-08-07T06:58:32.472Z,26.00
2018-08-07T07:00:59.881Z,26.20
2018-08-07T07:03:27.390Z,26.20
2018-08-07T07:05:54.791Z,26.30
2018-08-07T07:08:22.249Z,26.30
2018-08-07T07:10:50.042Z,26.40
2018-08-07T07:13:17.495Z,26.60
2018-08-07T07:15:44.931Z,26.70
2018-08-07T07:18:13.311Z,26.70
2018-08-07T07:20:40.787Z,27.00
2018-08-07T07:23:08.272Z,27.10
2018-08-07T07:25:35.798Z,27.40
2018-08-07T07:28:03.289Z,27.20
2018-08-07T07:30:30.812Z,27.30
2018-08-07T07:32:58.371Z,27.50
2018-08-07T07:35:25.829Z,27.50
2018-08-07T07:37:53.214Z,27.60
2018-08-07T07:40:20.847Z,27.60
2018-08-07T07:42:48.279Z,27.70
2018-08-07T07:45:17.196Z,28.10
2018-08-07T07:47:44.806Z,28.20
2018-08-07T07:50:15.662Z,28.20
2018-08-07T07:52:43.667Z,28.40
2018-08-07T07:55:12.346Z,28.50
2018-08-07T07:57:40.534Z,28.60
2018-08-07T08:00:12.476Z,28.60
2018-08-07T08:02:40.715Z,28.70
2018-08-07T08:05:08.862Z,28.60
2018-08-07T08:07:36.470Z,28.80
2018-08-07T08:10:04.859Z,28.90
2018-08-07T08:12:32.247Z,29.30
2018-08-07T08:14:59.930Z,29.10
2018-08-07T08:17:27.438Z,29.20
2018-08-07T08:19:54.944Z,28.90
2018-08-07T08:22:22.433Z,28.80
2018-08-07T08:24:49.843Z,29.00
2018-08-07T08:27:17.268Z,29.20
2018-08-07T08:29:44.698Z,29.30
2018-08-07T08:32:12.079Z,29.20
2018-08-07T08:34:39.531Z,29.40
2018-08-07T08:37:07.023Z,29.60
2018-08-07T08:39:34.456Z,29.70
2018-08-07T08:42:01.999Z,29.80
2018-08-07T08:44:29.318Z,29.80
2018-08-07T08:46:56.818Z,29.90
2018-08-07T08:49:24.278Z,30.10
2018-08-07T08:51:51.604Z,30.20
2018-08-07T08:54:19.072Z,30.40
2018-08-07T08:56:46.395Z,30.60
2018-08-07T08:59:13.898Z,30.60
2018-08-07T09:01:41.340Z,30.70
2018-08-07T09:04:08.742Z,30.80
2018-08-07T09:06:36.213Z,31.00
2018-08-07T09:09:05.990Z,31.20
2018-08-07T09:11:33.433Z,31.20
2018-08-07T09:14:00.895Z,31.20
2018-08-07T09:16:28.405Z,31.20
2018-08-07T09:18:55.702Z,31.10
2018-08-07T09:21:23.106Z,31.40
2018-08-07T09:23:50.625Z,31.70
2018-08-07T09:26:17.950Z,32.00
2018-08-07T09:31:12.789Z,31.50
2018-08-07T09:33:40.231Z,31.10
2018-08-07T09:36:07.629Z,31.10
2018-08-07T09:38:35.202Z,31.30
2018-08-07T09:41:02.727Z,31.40
2018-08-07T09:43:30.084Z,31.70
2018-08-07T09:45:57.473Z,31.90
2018-08-07T09:48:24.929Z,31.90
2018-08-07T09:50:52.341Z,32.10
2018-08-07T09:53:19.663Z,32.30
2018-08-07T09:55:47.250Z,32.50
2018-08-07T09:58:21.585Z,32.50
2018-08-07T10:00:54.729Z,32.50
2018-08-07T10:03:22.188Z,32.80
2018-08-07T10:05:49.575Z,32.70
2018-08-07T10:08:17.124Z,32.80
2018-08-07T10:10:44.545Z,32.80
2018-08-07T10:13:12.060Z,32.50
2018-08-07T10:15:39.552Z,32.50
2018-08-07T10:18:07.161Z,32.60
2018-08-07T10:20:34.534Z,32.60
2018-08-07T10:23:02.042Z,32.70
2018-08-07T10:25:29.458Z,32.90
2018-08-07T10:27:56.905Z,33.00
2018-08-07T10:30:25.147Z,32.90
2018-08-07T10:32:53.625Z,32.80
2018-08-07T10:35:21.227Z,32.90
2018-08-07T10:37:48.979Z,32.90
2018-08-07T10:40:21.615Z,33.30
2018-08-07T10:42:49.171Z,33.10
2018-08-07T10:45:19.038Z,33.00
2018-08-07T10:47:46.448Z,33.20
2018-08-07T10:50:17.057Z,33.40
2018-08-07T10:52:44.658Z,33.70
2018-08-07T10:55:12.083Z,33.80
2018-08-07T10:57:41.458Z,33.80
2018-08-07T11:00:17.845Z,33.60
2018-08-07T11:02:46.470Z,33.30
2018-08-07T11:05:14.229Z,33.00
2018-08-07T11:07:42.099Z,32.90
2018-08-07T11:10:10.882Z,33.00
2018-08-07T11:12:38.255Z,33.30
2018-08-07T11:15:11.857Z,33.40
2018-08-07T11:17:39.229Z,33.30
2018-08-07T11:20:07.796Z,33.60
2018-08-07T11:22:35.250Z,33.60
2018-08-07T11:25:03.319Z,33.50
2018-08-07T11:27:31.749Z,33.30
2018-08-07T11:30:00.245Z,33.80
2018-08-07T11:32:28.116Z,34.00
2018-08-07T11:34:55.500Z,34.10
2018-08-07T11:37:22.934Z,33.70
2018-08-07T11:39:50.402Z,33.40
2018-08-07T11:42:17.930Z,33.60
2018-08-07T11:44:45.375Z,33.80
2018-08-07T11:47:12.858Z,33.70
2018-08-07T11:49:40.383Z,33.60
2018-08-07T11:52:07.960Z,33.30
2018-08-07T11:54:35.324Z,33.60
2018-08-07T11:57:02.958Z,34.00
2018-08-07T11:59:30.325Z,33.90
2018-08-07T12:01:57.837Z,34.00
2018-08-07T12:04:25.363Z,34.00
2018-08-07T12:06:52.909Z,34.20
2018-08-07T12:09:20.395Z,34.40
2018-08-07T12:11:47.768Z,34.60
2018-08-07T12:14:16.169Z,34.60
2018-08-07T12:16:43.635Z,34.10
2018-08-07T12:19:11.081Z,34.00
2018-08-07T12:21:38.508Z,34.10
2018-08-07T12:24:06.253Z,34.10
2018-08-07T12:26:33.672Z,34.20
2018-08-07T12:29:01.182Z,34.20
2018-08-07T12:33:56.685Z,33.90
2018-08-07T12:36:24.692Z,33.80
2018-08-07T12:38:52.903Z,33.90
2018-08-07T12:41:20.358Z,33.50
2018-08-07T12:43:47.817Z,33.40
2018-08-07T12:46:15.329Z,33.50
2018-08-07T12:48:42.818Z,33.90
2018-08-07T12:51:10.261Z,34.10
2018-08-07T12:53:37.678Z,34.00
2018-08-07T12:56:05.130Z,33.90
2018-08-07T12:58:32.625Z,33.80
2018-08-07T13:01:00.045Z,33.80
2018-08-07T13:03:27.502Z,33.70
2018-08-07T13:05:58.423Z,33.70
2018-08-07T13:08:25.862Z,33.70
2018-08-07T13:10:53.310Z,33.50
2018-08-07T13:13:20.741Z,33.70
2018-08-07T13:15:48.277Z,33.70
2018-08-07T13:18:15.754Z,33.40
2018-08-07T13:20:43.361Z,33.50
2018-08-07T13:23:10.797Z,33.60
2018-08-07T13:25:38.297Z,33.70
2018-08-07T13:28:05.683Z,33.50
2018-08-07T13:30:33.315Z,33.20
2018-08-07T13:33:00.802Z,33.30
2018-08-07T13:35:28.202Z,33.30
2018-08-07T13:37:55.681Z,33.30
2018-08-07T13:40:24.020Z,33.10
2018-08-07T13:42:51.749Z,33.10
2018-08-07T13:45:20.675Z,33.30
2018-08-07T13:47:48.115Z,33.30
2018-08-07T13:50:18.001Z,33.20
2018-08-07T13:55:14.702Z,33.10
2018-08-07T13:57:42.135Z,33.20
2018-08-07T14:00:12.005Z,33.10
2018-08-07T14:02:39.489Z,32.90
2018-08-07T14:05:07.152Z,32.90
2018-08-07T14:07:34.567Z,32.60
2018-08-07T14:10:01.975Z,32.40
2018-08-07T14:12:29.316Z,32.50
2018-08-07T14:14:56.732Z,32.10
2018-08-07T14:17:24.151Z,32.10
2018-08-07T14:19:51.579Z,32.30
2018-08-07T14:22:19.080Z,32.40
2018-08-07T14:24:46.528Z,32.00
2018-08-07T14:27:13.939Z,31.70
2018-08-07T14:29:41.303Z,31.60
2018-08-07T14:32:08.817Z,31.60
2018-08-07T14:34:36.336Z,31.80
2018-08-07T14:37:03.928Z,31.80
2018-08-07T14:39:31.387Z,31.50
2018-08-07T14:41:58.819Z,31.90
2018-08-07T14:44:26.402Z,32.00
2018-08-07T14:46:53.908Z,32.10
2018-08-07T14:49:21.344Z,32.10
2018-08-07T14:51:48.958Z,32.20
2018-08-07T14:54:16.323Z,32.10
2018-08-07T14:56:43.704Z,32.10
2018-08-07T14:59:11.175Z,32.30
2018-08-07T15:01:38.544Z,32.30
2018-08-07T15:04:05.882Z,32.30
2018-08-07T15:06:33.305Z,32.20
2018-08-07T15:09:00.865Z,32.20
2018-08-07T15:11:28.220Z,32.20
2018-08-07T15:13:55.615Z,32.20
2018-08-07T15:16:22.999Z,32.10
2018-08-07T15:18:50.437Z,32.20
2018-08-07T15:21:17.863Z,32.10
2018-08-07T15:23:45.255Z,32.10
2018-08-07T15:26:12.681Z,32.00
2018-08-07T15:28:40.138Z,32.00
2018-08-07T15:31:07.547Z,31.90
2018-08-07T15:36:02.244Z,31.80
2018-08-07T15:38:29.631Z,31.80
2018-08-07T15:40:57.030Z,31.70
2018-08-07T15:43:24.433Z,31.70
2018-08-07T15:45:51.826Z,31.70
2018-08-07T15:48:19.325Z,31.70
2018-08-07T15:50:46.822Z,31.70
2018-08-07T15:53:14.344Z,31.80
2018-08-07T15:55:41.810Z,31.80
2018-08-07T15:58:09.309Z,31.70
2018-08-07T16:01:05.385Z,31.70
2018-08-07T16:03:32.820Z,31.80
2018-08-07T16:06:00.153Z,31.70
2018-08-07T16:08:27.674Z,31.80
2018-08-07T16:10:55.174Z,31.60
2018-08-07T16:13:22.608Z,31.50
2018-08-07T16:15:50.114Z,31.50
2018-08-07T16:18:17.582Z,31.50
2018-08-07T16:20:45.075Z,31.60
2018-08-07T16:23:12.565Z,31.50
2018-08-07T16:25:40.037Z,31.40
2018-08-07T16:28:07.422Z,31.40
2018-08-07T16:30:34.901Z,31.30
2018-08-07T16:33:02.259Z,31.30
2018-08-07T16:35:29.851Z,31.20
2018-08-07T16:37:57.262Z,31.30
2018-08-07T16:40:25.122Z,31.20
2018-08-07T16:42:53.737Z,31.00
2018-08-07T16:45:22.058Z,31.00
2018-08-07T16:47:49.632Z,31.00
2018-08-07T16:50:19.204Z,31.00
2018-08-07T16:52:47.118Z,31.00
2018-08-07T16:55:14.512Z,31.00
2018-08-07T16:57:42.197Z,31.00
2018-08-07T17:00:11.169Z,31.00
2018-08-07T17:02:38.815Z,31.00
2018-08-07T17:05:08.334Z,30.80
2018-08-07T17:07:35.816Z,30.80
2018-08-07T17:10:03.765Z,30.80
2018-08-07T17:12:31.265Z,30.70
2018-08-07T17:14:58.685Z,30.60
2018-08-07T17:17:26.097Z,30.50
2018-08-07T17:19:53.661Z,30.50
2018-08-07T17:22:21.273Z,30.50
2018-08-07T17:24:48.708Z,30.40
2018-08-07T17:27:16.124Z,30.40
2018-08-07T17:29:43.637Z,30.30
2018-08-07T17:32:11.000Z,30.20
2018-08-07T17:34:38.485Z,30.00
2018-08-07T17:37:05.916Z,29.90
2018-08-07T17:39:33.443Z,29.90
2018-08-07T17:42:00.983Z,29.80
2018-08-07T17:44:30.005Z,29.70
2018-08-07T17:46:57.467Z,29.70
2018-08-07T17:49:25.651Z,29.70
2018-08-07T17:51:53.055Z,29.70
2018-08-07T17:54:24.787Z,29.70
2018-08-07T17:56:52.276Z,29.70
2018-08-07T17:59:19.637Z,29.50
2018-08-07T18:01:47.668Z,29.40
2018-08-07T18:04:15.174Z,29.30
2018-08-07T18:06:43.090Z,29.30
2018-08-07T18:09:10.820Z,29.20
2018-08-07T18:11:38.574Z,29.20
2018-08-07T18:14:06.384Z,29.10
2018-08-07T18:16:33.886Z,29.10
2018-08-07T18:19:01.465Z,29.00
2018-08-07T18:21:28.862Z,29.00
2018-08-07T18:23:56.159Z,28.90
2018-08-07T18:26:23.599Z,29.00
2018-08-07T18:28:50.900Z,28.90
2018-08-07T18:31:18.260Z,28.90
2018-08-07T18:33:45.759Z,28.80
2018-08-07T18:36:13.283Z,28.80
2018-08-07T18:38:40.636Z,28.80
2018-08-07T18:41:08.191Z,28.70
2018-08-07T18:43:35.618Z,28.60
2018-08-07T18:46:02.950Z,28.60
2018-08-07T18:48:30.486Z,28.50
2018-08-07T18:50:57.999Z,28.50
2018-08-07T18:53:25.594Z,28.40
2018-08-07T18:55:53.084Z,28.30
2018-08-07T18:58:20.605Z,28.20
2018-08-07T19:00:48.102Z,28.10
2018-08-07T19:03:15.525Z,28.10
2018-08-07T19:05:42.966Z,28.00
2018-08-07T19:08:10.407Z,28.00
2018-08-07T19:10:37.892Z,27.90
2018-08-07T19:13:05.385Z,27.90
2018-08-07T19:15:32.842Z,27.90
2018-08-07T19:18:00.203Z,27.80
2018-08-07T19:20:27.715Z,27.80
2018-08-07T19:22:55.285Z,27.80
2018-08-07T19:25:22.860Z,27.80
2018-08-07T19:27:50.284Z,27.80
2018-08-07T19:30:19.926Z,27.70
2018-08-07T19:32:47.438Z,27.70
2018-08-07T19:35:14.918Z,27.60
2018-08-07T19:37:42.437Z,27.50
2018-08-07T19:40:12.029Z,27.50
2018-08-07T19:42:39.597Z,27.40
2018-08-07T19:45:08.924Z,27.30
2018-08-07T19:47:36.392Z,27.20
2018-08-07T19:50:04.962Z,27.10
2018-08-07T19:52:32.447Z,27.10
2018-08-07T19:54:59.934Z,27.10
2018-08-07T19:57:27.437Z,27.00
2018-08-07T19:59:54.960Z,26.90
2018-08-07T20:02:22.426Z,26.80
2018-08-07T20:04:50.335Z,26.80
2018-08-07T20:07:17.715Z,26.70
2018-08-07T20:09:45.289Z,26.60
2018-08-07T20:12:12.844Z,26.60
2018-08-07T20:14:40.330Z,26.50
2018-08-07T20:17:07.883Z,26.40
2018-08-07T20:19:35.409Z,26.30
2018-08-07T20:22:02.989Z,26.30
2018-08-07T20:24:30.485Z,26.20
2018-08-07T20:26:57.969Z,26.00
2018-08-07T20:29:25.508Z,26.00
2018-08-07T20:31:52.905Z,25.90
2018-08-07T20:34:20.331Z,25.90
2018-08-07T20:36:47.867Z,25.70
2018-08-07T20:39:15.204Z,25.60
2018-08-07T20:41:42.641Z,25.50
2018-08-07T20:44:10.207Z,25.50
2018-08-07T20:46:37.616Z,25.50
2018-08-07T20:49:05.115Z,25.40
2018-08-07T20:51:32.532Z,25.30
2018-08-07T20:53:59.984Z,25.40
2018-08-07T20:56:27.457Z,25.40
2018-08-07T20:58:54.858Z,25.30
2018-08-07T21:01:53.400Z,25.30
2018-08-07T21:04:21.968Z,25.30
2018-08-07T21:06:49.603Z,25.10
2018-08-07T21:09:26.299Z,25.00
2018-08-07T21:11:53.758Z,25.00
2018-08-07T21:14:21.194Z,24.90
2018-08-07T21:16:48.622Z,24.90
2018-08-07T21:19:15.951Z,24.90
2018-08-07T21:21:43.413Z,24.90
2018-08-07T21:24:10.894Z,24.80
2018-08-07T21:26:38.388Z,24.90
2018-08-07T21:29:05.777Z,25.00
2018-08-07T21:31:33.213Z,24.90
2018-08-07T21:34:00.642Z,25.00
2018-08-07T21:36:28.039Z,24.90
2018-08-07T21:38:55.485Z,24.80
2018-08-07T21:41:22.974Z,24.80
2018-08-07T21:43:50.350Z,24.80
2018-08-07T21:46:17.799Z,24.80
2018-08-07T21:48:45.306Z,24.80
2018-08-07T21:51:12.781Z,24.80
2018-08-07T21:53:40.286Z,24.90
2018-08-07T21:56:07.805Z,24.90
2018-08-07T21:58:35.175Z,24.90
2018-08-07T22:01:02.770Z,25.00
2018-08-07T22:03:30.209Z,24.90
2018-08-07T22:05:57.605Z,24.90
2018-08-07T22:08:25.074Z,25.00
2018-08-07T22:10:52.649Z,25.00
2018-08-07T22:13:20.090Z,24.90
2018-08-07T22:15:47.546Z,24.90
2018-08-07T22:18:14.972Z,24.90
2018-08-07T22:20:42.334Z,24.90
2018-08-07T22:23:09.720Z,24.90
2018-08-07T22:25:37.222Z,25.00
2018-08-07T22:28:05.342Z,24.90
2018-08-07T22:30:32.741Z,24.90
2018-08-07T22:33:00.261Z,24.80
2018-08-07T22:35:27.694Z,24.80
2018-08-07T22:37:55.050Z,24.80
2018-08-07T22:40:22.484Z,24.80
2018-08-07T22:42:49.997Z,24.80
2018-08-07T22:45:18.130Z,24.80
2018-08-07T22:47:45.698Z,24.80
2018-08-07T22:50:15.384Z,24.80
2018-08-07T22:52:43.597Z,24.90
2018-08-07T22:55:12.819Z,24.80
2018-08-07T22:57:40.395Z,24.80
2018-08-07T23:00:10.199Z,24.80
2018-08-07T23:02:37.657Z,24.70
2018-08-07T23:05:05.294Z,24.80
2018-08-07T23:07:32.653Z,24.70
2018-08-07T23:10:00.067Z,24.80
2018-08-07T23:12:27.407Z,24.70
2018-08-07T23:14:55.094Z,24.60
2018-08-07T23:17:22.470Z,24.70
2018-08-07T23:19:49.948Z,24.60
2018-08-07T23:22:17.394Z,24.50
2018-08-07T23:24:44.675Z,24.50
2018-08-07T23:27:12.053Z,24.40
2018-08-07T23:29:39.484Z,24.40
2018-08-07T23:32:06.904Z,24.30
2018-08-07T23:34:34.292Z,24.30
2018-08-07T23:37:01.642Z,24.40
2018-08-07T23:39:28.967Z,24.30
2018-08-07T23:41:56.375Z,24.30
2018-08-07T23:44:23.706Z,24.20
2018-08-07T23:46:51.008Z,24.20
2018-08-07T23:49:18.450Z,24.10
2018-08-07T23:51:45.910Z,24.10
2018-08-07T23:54:13.268Z,24.10
2018-08-07T23:56:40.631Z,24.10
2018-08-07T23:59:08.124Z,24.10
